SWA1343 KHOU-KOMA
Flight info
| Callsign | SWA1343 |
|---|---|
| Flight time | 1h 49m |
| Altitude | 32000 |
| Route | STYCK8 WTSON BYP HTHWY TIMMO1 |
| Aircraft | B738/M-SDE2E3FGHIRWXY/LB1 |
Departure
| Time | 2026-05-05 15:13 |
|---|---|
| Airport | William P. Hobby Airport (KHOU) |
Arrival
| Time | 2026-05-05 17:03 |
|---|---|
| Airport | Eppley Airfield (KOMA) |
| Time | Latitude | Longitude | Altitude | Speed | Heading |
|---|---|---|---|---|---|
| 2026-05-05 14:43 | 29.65294 | -95.27843 | 51 ft | 0 kts | 158° |
| 2026-05-05 15:05 | 29.65316 | -95.27853 | 50 ft | 4 kts | 170° |
| 2026-05-05 15:05 | 29.65339 | -95.27849 | 48 ft | 4 kts | 222° |
| 2026-05-05 15:06 | 29.65351 | -95.27830 | 46 ft | 1 kts | 249° |
| 2026-05-05 15:06 | 29.65353 | -95.27826 | 46 ft | 0 kts | 249° |
| 2026-05-05 15:08 | 29.65351 | -95.27830 | 46 ft | 3 kts | 249° |
| 2026-05-05 15:08 | 29.65334 | -95.27881 | 51 ft | 8 kts | 248° |
| 2026-05-05 15:08 | 29.65313 | -95.27942 | 51 ft | 8 kts | 246° |
| 2026-05-05 15:09 | 29.65280 | -95.27984 | 51 ft | 6 kts | 212° |
| 2026-05-05 15:09 | 29.65237 | -95.28034 | 51 ft | 9 kts | 249° |
| 2026-05-05 15:09 | 29.65270 | -95.28092 | 51 ft | 9 kts | 317° |
| 2026-05-05 15:09 | 29.65311 | -95.28143 | 51 ft | 9 kts | 308° |
| 2026-05-05 15:10 | 29.65325 | -95.28214 | 51 ft | 9 kts | 255° |
| 2026-05-05 15:10 | 29.65306 | -95.28279 | 51 ft | 9 kts | 252° |
| 2026-05-05 15:10 | 29.65283 | -95.28341 | 48 ft | 9 kts | 233° |
| 2026-05-05 15:10 | 29.65231 | -95.28405 | 51 ft | 12 kts | 234° |
| 2026-05-05 15:11 | 29.65223 | -95.28497 | 51 ft | 12 kts | 270° |
| 2026-05-05 15:11 | 29.65205 | -95.28556 | 50 ft | 5 kts | 200° |
| 2026-05-05 15:11 | 29.65203 | -95.28557 | 48 ft | 0 kts | 199° |
| 2026-05-05 15:12 | 29.65167 | -95.28564 | 51 ft | 10 kts | 185° |
| 2026-05-05 15:12 | 29.65091 | -95.28547 | 51 ft | 11 kts | 141° |
| 2026-05-05 15:12 | 29.65032 | -95.28477 | 51 ft | 23 kts | 133° |
| 2026-05-05 15:13 | 29.64741 | -95.28133 | 49 ft | 96 kts | 134° |
| 2026-05-05 15:13 | 29.64117 | -95.27400 | 61 ft | 157 kts | 136° |
| 2026-05-05 15:13 | 29.63344 | -95.26442 | 629 ft | 168 kts | 136° |
| 2026-05-05 15:13 | 29.62537 | -95.25417 | 1397 ft | 172 kts | 140° |
| 2026-05-05 15:14 | 29.61569 | -95.24649 | 2096 ft | 173 kts | 169° |
| 2026-05-05 15:14 | 29.60322 | -95.24804 | 2400 ft | 192 kts | 207° |
| 2026-05-05 15:14 | 29.59587 | -95.25413 | 2611 ft | 203 kts | 221° |
| 2026-05-05 15:14 | 29.58243 | -95.26950 | 3376 ft | 211 kts | 223° |
| 2026-05-05 15:15 | 29.57523 | -95.27783 | 3483 ft | 233 kts | 227° |
| 2026-05-05 15:15 | 29.56772 | -95.29494 | 4073 ft | 250 kts | 256° |
| 2026-05-05 15:15 | 29.56885 | -95.31524 | 4882 ft | 265 kts | 285° |
| 2026-05-05 15:15 | 29.57859 | -95.33366 | 5758 ft | 276 kts | 308° |
| 2026-05-05 15:16 | 29.59104 | -95.34813 | 6555 ft | 278 kts | 312° |
| 2026-05-05 15:16 | 29.60294 | -95.36139 | 7211 ft | 280 kts | 313° |
| 2026-05-05 15:16 | 29.61810 | -95.37551 | 7978 ft | 286 kts | 332° |
| 2026-05-05 15:16 | 29.63769 | -95.38022 | 8809 ft | 291 kts | 355° |
| 2026-05-05 15:17 | 29.65421 | -95.38054 | 9486 ft | 292 kts | 356° |
| 2026-05-05 15:17 | 29.67464 | -95.38071 | 10225 ft | 293 kts | 355° |
| 2026-05-05 15:17 | 29.69563 | -95.38108 | 10527 ft | 313 kts | 355° |
| 2026-05-05 15:17 | 29.71802 | -95.38178 | 10707 ft | 334 kts | 355° |
| 2026-05-05 15:18 | 29.74172 | -95.38279 | 10859 ft | 353 kts | 354° |
| 2026-05-05 15:18 | 29.76688 | -95.38404 | 11131 ft | 366 kts | 354° |
| 2026-05-05 15:18 | 29.79251 | -95.38542 | 11650 ft | 371 kts | 354° |
| 2026-05-05 15:18 | 29.81835 | -95.38689 | 12321 ft | 371 kts | 354° |
| 2026-05-05 15:19 | 29.84408 | -95.38839 | 13017 ft | 371 kts | 353° |
| 2026-05-05 15:19 | 29.86989 | -95.38994 | 13684 ft | 371 kts | 353° |
| 2026-05-05 15:19 | 29.89581 | -95.39151 | 14222 ft | 374 kts | 353° |
| 2026-05-05 15:19 | 29.92188 | -95.39311 | 14669 ft | 378 kts | 352° |
| 2026-05-05 15:20 | 29.94842 | -95.39474 | 15110 ft | 383 kts | 352° |
| 2026-05-05 15:20 | 29.97482 | -95.39635 | 15560 ft | 387 kts | 352° |
| 2026-05-05 15:20 | 30.00192 | -95.39799 | 16021 ft | 391 kts | 352° |
| 2026-05-05 15:20 | 30.02922 | -95.39965 | 16486 ft | 395 kts | 351° |
| 2026-05-05 15:21 | 30.05680 | -95.40134 | 16917 ft | 399 kts | 351° |
| 2026-05-05 15:21 | 30.08446 | -95.40448 | 17357 ft | 398 kts | 343° |
| 2026-05-05 15:21 | 30.11108 | -95.41261 | 17838 ft | 394 kts | 334° |
| 2026-05-05 15:21 | 30.13595 | -95.42539 | 18293 ft | 393 kts | 328° |
| 2026-05-05 15:22 | 30.16039 | -95.43951 | 18718 ft | 394 kts | 327° |
| 2026-05-05 15:22 | 30.18496 | -95.45374 | 19192 ft | 395 kts | 327° |
| 2026-05-05 15:22 | 30.20961 | -95.46786 | 19651 ft | 396 kts | 327° |
| 2026-05-05 15:22 | 30.23440 | -95.48190 | 20091 ft | 397 kts | 327° |
| 2026-05-05 15:23 | 30.25931 | -95.49594 | 20524 ft | 399 kts | 327° |
| 2026-05-05 15:23 | 30.28428 | -95.51001 | 20967 ft | 400 kts | 327° |
| 2026-05-05 15:23 | 30.30937 | -95.52416 | 21389 ft | 402 kts | 327° |
| 2026-05-05 15:23 | 30.33457 | -95.53838 | 21804 ft | 403 kts | 327° |
| 2026-05-05 15:24 | 30.35985 | -95.55266 | 22203 ft | 404 kts | 327° |
| 2026-05-05 15:24 | 30.38498 | -95.56686 | 22585 ft | 406 kts | 327° |
| 2026-05-05 15:24 | 30.41044 | -95.58126 | 22962 ft | 408 kts | 326° |
| 2026-05-05 15:24 | 30.43602 | -95.59574 | 23331 ft | 409 kts | 326° |
| 2026-05-05 15:25 | 30.46164 | -95.61025 | 23648 ft | 410 kts | 326° |
| 2026-05-05 15:25 | 30.48737 | -95.62482 | 23934 ft | 412 kts | 326° |
| 2026-05-05 15:25 | 30.51314 | -95.63942 | 24124 ft | 413 kts | 326° |
| 2026-05-05 15:25 | 30.53899 | -95.65406 | 24415 ft | 415 kts | 327° |
| 2026-05-05 15:26 | 30.56523 | -95.66843 | 24698 ft | 417 kts | 327° |
| 2026-05-05 15:26 | 30.59163 | -95.68250 | 24963 ft | 419 kts | 328° |
| 2026-05-05 15:26 | 30.61821 | -95.69655 | 25267 ft | 420 kts | 328° |
| 2026-05-05 15:26 | 30.64483 | -95.71062 | 25612 ft | 419 kts | 328° |
| 2026-05-05 15:27 | 30.67106 | -95.72453 | 25893 ft | 421 kts | 327° |
| 2026-05-05 15:27 | 30.69769 | -95.73871 | 26167 ft | 422 kts | 327° |
| 2026-05-05 15:27 | 30.72440 | -95.75298 | 26443 ft | 423 kts | 327° |
| 2026-05-05 15:27 | 30.75116 | -95.76732 | 26700 ft | 424 kts | 327° |
| 2026-05-05 15:28 | 30.77804 | -95.78173 | 26955 ft | 426 kts | 327° |
| 2026-05-05 15:28 | 30.80503 | -95.79621 | 27205 ft | 427 kts | 327° |
| 2026-05-05 15:28 | 30.83196 | -95.81065 | 27588 ft | 426 kts | 327° |
| 2026-05-05 15:28 | 30.85884 | -95.82506 | 28048 ft | 423 kts | 327° |
| 2026-05-05 15:29 | 30.88547 | -95.83934 | 28517 ft | 420 kts | 327° |
| 2026-05-05 15:29 | 30.91194 | -95.85356 | 28906 ft | 418 kts | 327° |
| 2026-05-05 15:29 | 30.93837 | -95.86778 | 29239 ft | 418 kts | 327° |
| 2026-05-05 15:29 | 30.96478 | -95.88202 | 29608 ft | 417 kts | 327° |
| 2026-05-05 15:30 | 30.99111 | -95.89621 | 30006 ft | 416 kts | 327° |
| 2026-05-05 15:30 | 31.01729 | -95.91031 | 30359 ft | 413 kts | 327° |
| 2026-05-05 15:30 | 31.04305 | -95.92421 | 30676 ft | 412 kts | 327° |
| 2026-05-05 15:30 | 31.06907 | -95.93826 | 30953 ft | 412 kts | 327° |
| 2026-05-05 15:31 | 31.09510 | -95.95231 | 31259 ft | 411 kts | 327° |
| 2026-05-05 15:31 | 31.12146 | -95.96549 | 31643 ft | 415 kts | 331° |
| 2026-05-05 15:31 | 31.14956 | -95.97485 | 31797 ft | 427 kts | 339° |
| 2026-05-05 15:32 | 31.20834 | -95.98795 | 31822 ft | 430 kts | 340° |
| 2026-05-05 15:32 | 31.26677 | -96.00052 | 31824 ft | 424 kts | 339° |
| 2026-05-05 15:33 | 31.32468 | -96.01339 | 31840 ft | 424 kts | 339° |
| 2026-05-05 15:33 | 31.38265 | -96.02653 | 31874 ft | 424 kts | 339° |
| 2026-05-05 15:34 | 31.44081 | -96.03978 | 31851 ft | 425 kts | 339° |
| 2026-05-05 15:34 | 31.49857 | -96.05294 | 31845 ft | 426 kts | 339° |
| 2026-05-05 15:35 | 31.55671 | -96.06620 | 31843 ft | 426 kts | 339° |
| 2026-05-05 15:35 | 31.61487 | -96.07947 | 31842 ft | 426 kts | 339° |
| 2026-05-05 15:36 | 31.67308 | -96.09278 | 31845 ft | 426 kts | 339° |
| 2026-05-05 15:36 | 31.73134 | -96.10612 | 31843 ft | 427 kts | 339° |
| 2026-05-05 15:37 | 31.78975 | -96.11950 | 31834 ft | 427 kts | 339° |
| 2026-05-05 15:37 | 31.84815 | -96.13290 | 31829 ft | 428 kts | 339° |
| 2026-05-05 15:38 | 31.90661 | -96.14633 | 31833 ft | 428 kts | 339° |
| 2026-05-05 15:38 | 31.96509 | -96.15979 | 31834 ft | 428 kts | 338° |
| 2026-05-05 15:39 | 32.02355 | -96.17325 | 31837 ft | 428 kts | 338° |
| 2026-05-05 15:39 | 32.08170 | -96.18666 | 31829 ft | 428 kts | 338° |
| 2026-05-05 15:40 | 32.14011 | -96.20015 | 31821 ft | 428 kts | 338° |
| 2026-05-05 15:40 | 32.19908 | -96.21197 | 31851 ft | 439 kts | 346° |
| 2026-05-05 15:41 | 32.26055 | -96.21321 | 31822 ft | 444 kts | 348° |
| 2026-05-05 15:41 | 32.32239 | -96.21364 | 31811 ft | 444 kts | 348° |
| 2026-05-05 15:42 | 32.38412 | -96.21437 | 31799 ft | 444 kts | 348° |
| 2026-05-05 15:42 | 32.44589 | -96.21534 | 31801 ft | 444 kts | 348° |
| 2026-05-05 15:43 | 32.50772 | -96.21639 | 31799 ft | 444 kts | 347° |
| 2026-05-05 15:43 | 32.56948 | -96.21745 | 31794 ft | 444 kts | 347° |
| 2026-05-05 15:44 | 32.63092 | -96.21849 | 31794 ft | 444 kts | 347° |
| 2026-05-05 15:44 | 32.69261 | -96.21953 | 31798 ft | 443 kts | 347° |
| 2026-05-05 15:45 | 32.75434 | -96.22058 | 31820 ft | 443 kts | 347° |
| 2026-05-05 15:45 | 32.81607 | -96.22163 | 31804 ft | 443 kts | 347° |
| 2026-05-05 15:46 | 32.87761 | -96.22268 | 31784 ft | 442 kts | 347° |
| 2026-05-05 15:46 | 32.93914 | -96.22372 | 31779 ft | 442 kts | 347° |
| 2026-05-05 15:47 | 33.00064 | -96.22477 | 31777 ft | 441 kts | 347° |
| 2026-05-05 15:47 | 33.06173 | -96.22583 | 31801 ft | 441 kts | 347° |
| 2026-05-05 15:48 | 33.12312 | -96.22688 | 31791 ft | 441 kts | 347° |
| 2026-05-05 15:48 | 33.18455 | -96.22793 | 31786 ft | 441 kts | 347° |
| 2026-05-05 15:49 | 33.24595 | -96.22898 | 31770 ft | 441 kts | 347° |
| 2026-05-05 15:49 | 33.30728 | -96.23004 | 31766 ft | 441 kts | 347° |
| 2026-05-05 15:50 | 33.36866 | -96.23110 | 31753 ft | 441 kts | 347° |
| 2026-05-05 15:50 | 33.43007 | -96.23216 | 31742 ft | 441 kts | 347° |
| 2026-05-05 15:51 | 33.49152 | -96.23322 | 31744 ft | 441 kts | 347° |
| 2026-05-05 15:51 | 33.55297 | -96.23419 | 31750 ft | 443 kts | 347° |
| 2026-05-05 15:52 | 33.61472 | -96.23411 | 31742 ft | 444 kts | 347° |
| 2026-05-05 15:52 | 33.67655 | -96.23366 | 31735 ft | 445 kts | 347° |
| 2026-05-05 15:53 | 33.73844 | -96.23328 | 31731 ft | 445 kts | 347° |
| 2026-05-05 15:53 | 33.80042 | -96.23299 | 31775 ft | 445 kts | 347° |
| 2026-05-05 15:54 | 33.86247 | -96.23275 | 31753 ft | 446 kts | 347° |
| 2026-05-05 15:54 | 33.92451 | -96.23251 | 31745 ft | 446 kts | 347° |
| 2026-05-05 15:55 | 33.98624 | -96.23227 | 31741 ft | 446 kts | 347° |
| 2026-05-05 15:55 | 34.04836 | -96.23203 | 31735 ft | 446 kts | 347° |
| 2026-05-05 15:56 | 34.11042 | -96.23179 | 31741 ft | 446 kts | 347° |
| 2026-05-05 15:56 | 34.17257 | -96.23154 | 31722 ft | 446 kts | 347° |
| 2026-05-05 15:57 | 34.23473 | -96.23130 | 31713 ft | 446 kts | 347° |
| 2026-05-05 15:57 | 34.29683 | -96.23105 | 31707 ft | 446 kts | 347° |
| 2026-05-05 15:58 | 34.35889 | -96.23081 | 31709 ft | 447 kts | 347° |
| 2026-05-05 15:58 | 34.42120 | -96.23056 | 31707 ft | 446 kts | 347° |
| 2026-05-05 15:59 | 34.48324 | -96.23031 | 31699 ft | 446 kts | 347° |
| 2026-05-05 15:59 | 34.54489 | -96.23006 | 31700 ft | 445 kts | 347° |
| 2026-05-05 16:00 | 34.60679 | -96.22982 | 31711 ft | 445 kts | 347° |
| 2026-05-05 16:00 | 34.66870 | -96.22957 | 31699 ft | 445 kts | 347° |
| 2026-05-05 16:01 | 34.73041 | -96.22932 | 31695 ft | 444 kts | 347° |
| 2026-05-05 16:01 | 34.79231 | -96.22908 | 31692 ft | 443 kts | 347° |
| 2026-05-05 16:02 | 34.84305 | -96.22889 | 31723 ft | 444 kts | 347° |
| 2026-05-05 16:02 | 34.90486 | -96.22865 | 31700 ft | 444 kts | 347° |
| 2026-05-05 16:03 | 34.96664 | -96.22840 | 31696 ft | 444 kts | 347° |
| 2026-05-05 16:03 | 35.02843 | -96.22815 | 31679 ft | 444 kts | 347° |
| 2026-05-05 16:04 | 35.09014 | -96.22790 | 31727 ft | 443 kts | 346° |
| 2026-05-05 16:04 | 35.15187 | -96.22766 | 31697 ft | 444 kts | 346° |
| 2026-05-05 16:05 | 35.21325 | -96.22741 | 31681 ft | 444 kts | 346° |
| 2026-05-05 16:05 | 35.27498 | -96.22716 | 31683 ft | 443 kts | 346° |
| 2026-05-05 16:06 | 35.33661 | -96.22690 | 31690 ft | 443 kts | 346° |
| 2026-05-05 16:06 | 35.39830 | -96.22667 | 31698 ft | 444 kts | 346° |
| 2026-05-05 16:07 | 35.45287 | -96.22646 | 31692 ft | 444 kts | 346° |
| 2026-05-05 16:07 | 35.51472 | -96.22619 | 31707 ft | 443 kts | 346° |
| 2026-05-05 16:08 | 35.57638 | -96.22593 | 31711 ft | 443 kts | 346° |
| 2026-05-05 16:08 | 35.63801 | -96.22569 | 31717 ft | 442 kts | 347° |
| 2026-05-05 16:09 | 35.69920 | -96.22545 | 31726 ft | 443 kts | 347° |
| 2026-05-05 16:09 | 35.76103 | -96.22522 | 31726 ft | 444 kts | 347° |
| 2026-05-05 16:10 | 35.82286 | -96.22497 | 31729 ft | 446 kts | 347° |
| 2026-05-05 16:10 | 35.88501 | -96.22472 | 31746 ft | 446 kts | 347° |
| 2026-05-05 16:11 | 35.94708 | -96.22445 | 31758 ft | 446 kts | 347° |
| 2026-05-05 16:12 | 36.07073 | -96.22392 | 31740 ft | 444 kts | 347° |
| 2026-05-05 16:13 | 36.22518 | -96.22329 | 31764 ft | 443 kts | 347° |
| 2026-05-05 16:13 | 36.28688 | -96.22304 | 31763 ft | 443 kts | 347° |
| 2026-05-05 16:14 | 36.41035 | -96.22256 | 31784 ft | 445 kts | 347° |
| 2026-05-05 16:15 | 36.53433 | -96.22204 | 31778 ft | 446 kts | 347° |
| 2026-05-05 16:16 | 36.65830 | -96.22152 | 31840 ft | 448 kts | 347° |
| 2026-05-05 16:17 | 36.75191 | -96.22113 | 31836 ft | 448 kts | 347° |
| 2026-05-05 16:18 | 36.84546 | -96.22072 | 31882 ft | 448 kts | 348° |
| 2026-05-05 16:19 | 36.93908 | -96.22033 | 31844 ft | 448 kts | 348° |
| 2026-05-05 16:19 | 37.03199 | -96.21992 | 31844 ft | 446 kts | 348° |
| 2026-05-05 16:20 | 37.15585 | -96.21940 | 31858 ft | 444 kts | 348° |
| 2026-05-05 16:22 | 37.31015 | -96.21875 | 31871 ft | 442 kts | 348° |
| 2026-05-05 16:23 | 37.43308 | -96.21825 | 31885 ft | 443 kts | 348° |
| 2026-05-05 16:23 | 37.52543 | -96.21786 | 31900 ft | 444 kts | 348° |
| 2026-05-05 16:24 | 37.58725 | -96.21760 | 31917 ft | 445 kts | 348° |
| 2026-05-05 16:25 | 37.68002 | -96.21720 | 31913 ft | 445 kts | 348° |
| 2026-05-05 16:25 | 37.77294 | -96.21680 | 31927 ft | 445 kts | 348° |
| 2026-05-05 16:26 | 37.89681 | -96.21626 | 31932 ft | 445 kts | 347° |
| 2026-05-05 16:27 | 37.95820 | -96.21598 | 31936 ft | 444 kts | 347° |
| 2026-05-05 16:27 | 38.01994 | -96.21571 | 31939 ft | 443 kts | 347° |
| 2026-05-05 16:28 | 38.08117 | -96.21544 | 31958 ft | 442 kts | 347° |
| 2026-05-05 16:28 | 38.14264 | -96.21517 | 31963 ft | 441 kts | 347° |
| 2026-05-05 16:29 | 38.20399 | -96.21491 | 31968 ft | 440 kts | 347° |
| 2026-05-05 16:29 | 38.26514 | -96.21469 | 31972 ft | 440 kts | 347° |
| 2026-05-05 16:30 | 38.32634 | -96.21443 | 31972 ft | 440 kts | 347° |
| 2026-05-05 16:30 | 38.38763 | -96.21414 | 31973 ft | 440 kts | 347° |
| 2026-05-05 16:31 | 38.44897 | -96.21388 | 31971 ft | 441 kts | 347° |
| 2026-05-05 16:31 | 38.51037 | -96.21361 | 32000 ft | 442 kts | 347° |
| 2026-05-05 16:32 | 38.57171 | -96.21336 | 31972 ft | 444 kts | 347° |
| 2026-05-05 16:32 | 38.63354 | -96.21309 | 31965 ft | 445 kts | 347° |
| 2026-05-05 16:33 | 38.69553 | -96.21281 | 31965 ft | 446 kts | 347° |
| 2026-05-05 16:33 | 38.75769 | -96.21254 | 31975 ft | 447 kts | 347° |
| 2026-05-05 16:34 | 38.81996 | -96.21226 | 31977 ft | 448 kts | 347° |
| 2026-05-05 16:34 | 38.88235 | -96.21199 | 31964 ft | 449 kts | 347° |
| 2026-05-05 16:35 | 38.94478 | -96.21169 | 31983 ft | 448 kts | 347° |
| 2026-05-05 16:35 | 39.00707 | -96.21140 | 31986 ft | 448 kts | 347° |
| 2026-05-05 16:36 | 39.06937 | -96.21112 | 31992 ft | 447 kts | 347° |
| 2026-05-05 16:36 | 39.13155 | -96.21084 | 31987 ft | 447 kts | 347° |
| 2026-05-05 16:37 | 39.19330 | -96.21057 | 32019 ft | 446 kts | 347° |
| 2026-05-05 16:37 | 39.22432 | -96.21043 | 31690 ft | 446 kts | 347° |
| 2026-05-05 16:37 | 39.25508 | -96.21024 | 31350 ft | 438 kts | 347° |
| 2026-05-05 16:38 | 39.28544 | -96.21004 | 30921 ft | 435 kts | 347° |
| 2026-05-05 16:38 | 39.31561 | -96.20988 | 30517 ft | 431 kts | 347° |
| 2026-05-05 16:38 | 39.34548 | -96.20974 | 30108 ft | 429 kts | 348° |
| 2026-05-05 16:38 | 39.37523 | -96.20962 | 29605 ft | 426 kts | 348° |
| 2026-05-05 16:39 | 39.40479 | -96.20950 | 29151 ft | 423 kts | 348° |
| 2026-05-05 16:39 | 39.43414 | -96.20937 | 28754 ft | 420 kts | 348° |
| 2026-05-05 16:39 | 39.46326 | -96.20925 | 28236 ft | 418 kts | 348° |
| 2026-05-05 16:39 | 39.49229 | -96.20913 | 27801 ft | 415 kts | 348° |
| 2026-05-05 16:40 | 39.52105 | -96.20900 | 27373 ft | 412 kts | 348° |
| 2026-05-05 16:40 | 39.54962 | -96.20888 | 26949 ft | 410 kts | 349° |
| 2026-05-05 16:40 | 39.57806 | -96.20876 | 26532 ft | 407 kts | 349° |
| 2026-05-05 16:40 | 39.60632 | -96.20863 | 26108 ft | 405 kts | 349° |
| 2026-05-05 16:41 | 39.63456 | -96.20853 | 25692 ft | 405 kts | 350° |
| 2026-05-05 16:41 | 39.66254 | -96.20844 | 25293 ft | 408 kts | 350° |
| 2026-05-05 16:41 | 39.69092 | -96.20835 | 24856 ft | 406 kts | 351° |
| 2026-05-05 16:41 | 39.71912 | -96.20821 | 24424 ft | 405 kts | 351° |
| 2026-05-05 16:42 | 39.74725 | -96.20807 | 24002 ft | 403 kts | 352° |
| 2026-05-05 16:42 | 39.77493 | -96.20794 | 23577 ft | 401 kts | 352° |
| 2026-05-05 16:42 | 39.80276 | -96.20780 | 23095 ft | 399 kts | 352° |
| 2026-05-05 16:42 | 39.82950 | -96.20767 | 22673 ft | 396 kts | 352° |
| 2026-05-05 16:43 | 39.85700 | -96.20753 | 22245 ft | 393 kts | 352° |
| 2026-05-05 16:43 | 39.88438 | -96.20740 | 21846 ft | 391 kts | 352° |
| 2026-05-05 16:43 | 39.91147 | -96.20728 | 21423 ft | 388 kts | 353° |
| 2026-05-05 16:43 | 39.93843 | -96.20715 | 21012 ft | 385 kts | 353° |
| 2026-05-05 16:44 | 39.96509 | -96.20703 | 20618 ft | 382 kts | 353° |
| 2026-05-05 16:44 | 39.99165 | -96.20691 | 20223 ft | 381 kts | 353° |
| 2026-05-05 16:44 | 40.01816 | -96.20681 | 19816 ft | 379 kts | 353° |
| 2026-05-05 16:44 | 40.04446 | -96.20669 | 19425 ft | 377 kts | 353° |
| 2026-05-05 16:45 | 40.07052 | -96.20657 | 19036 ft | 375 kts | 353° |
| 2026-05-05 16:45 | 40.09652 | -96.20646 | 18750 ft | 370 kts | 353° |
| 2026-05-05 16:45 | 40.12236 | -96.20635 | 18251 ft | 372 kts | 353° |
| 2026-05-05 16:45 | 40.14765 | -96.20622 | 17976 ft | 365 kts | 353° |
| 2026-05-05 16:46 | 40.17317 | -96.20612 | 17435 ft | 366 kts | 354° |
| 2026-05-05 16:46 | 40.19856 | -96.20599 | 17012 ft | 364 kts | 354° |
| 2026-05-05 16:46 | 40.22377 | -96.20410 | 16728 ft | 361 kts | 359° |
| 2026-05-05 16:46 | 40.24850 | -96.20031 | 16463 ft | 356 kts | 1° |
| 2026-05-05 16:47 | 40.27288 | -96.19609 | 16178 ft | 350 kts | 1° |
| 2026-05-05 16:47 | 40.29696 | -96.19196 | 15824 ft | 348 kts | 1° |
| 2026-05-05 16:47 | 40.32086 | -96.18801 | 15481 ft | 346 kts | 1° |
| 2026-05-05 16:47 | 40.34474 | -96.18420 | 15104 ft | 344 kts | 0° |
| 2026-05-05 16:48 | 40.36850 | -96.18049 | 14732 ft | 343 kts | 1° |
| 2026-05-05 16:48 | 40.39215 | -96.17685 | 14368 ft | 342 kts | 1° |
| 2026-05-05 16:48 | 40.41579 | -96.17323 | 13999 ft | 341 kts | 1° |
| 2026-05-05 16:48 | 40.43927 | -96.16963 | 13609 ft | 339 kts | 1° |
| 2026-05-05 16:49 | 40.46268 | -96.16605 | 13207 ft | 338 kts | 1° |
| 2026-05-05 16:49 | 40.48594 | -96.16248 | 12831 ft | 335 kts | 1° |
| 2026-05-05 16:49 | 40.50121 | -96.15996 | 12588 ft | 335 kts | 5° |
| 2026-05-05 16:49 | 40.52321 | -96.14945 | 12238 ft | 341 kts | 26° |
| 2026-05-05 16:50 | 40.54290 | -96.13236 | 12001 ft | 336 kts | 31° |
| 2026-05-05 16:50 | 40.56175 | -96.11453 | 11718 ft | 332 kts | 32° |
| 2026-05-05 16:50 | 40.58031 | -96.09672 | 11442 ft | 328 kts | 32° |
| 2026-05-05 16:50 | 40.59866 | -96.07904 | 11168 ft | 326 kts | 32° |
| 2026-05-05 16:51 | 40.62275 | -96.05581 | 10826 ft | 321 kts | 32° |
| 2026-05-05 16:51 | 40.63485 | -96.04412 | 10691 ft | 317 kts | 32° |
| 2026-05-05 16:51 | 40.65249 | -96.02706 | 10473 ft | 311 kts | 32° |
| 2026-05-05 16:51 | 40.66961 | -96.01045 | 10299 ft | 301 kts | 32° |
| 2026-05-05 16:52 | 40.68617 | -95.99433 | 10121 ft | 291 kts | 32° |
| 2026-05-05 16:52 | 40.70198 | -95.97886 | 9941 ft | 282 kts | 32° |
| 2026-05-05 16:52 | 40.71777 | -95.96336 | 9739 ft | 277 kts | 32° |
| 2026-05-05 16:52 | 40.73297 | -95.94846 | 9495 ft | 274 kts | 32° |
| 2026-05-05 16:53 | 40.74822 | -95.93351 | 9265 ft | 272 kts | 32° |
| 2026-05-05 16:53 | 40.76331 | -95.91876 | 9028 ft | 268 kts | 31° |
| 2026-05-05 16:53 | 40.77813 | -95.90394 | 8790 ft | 265 kts | 32° |
| 2026-05-05 16:53 | 40.79271 | -95.88918 | 8568 ft | 263 kts | 32° |
| 2026-05-05 16:54 | 40.80716 | -95.87455 | 8318 ft | 260 kts | 32° |
| 2026-05-05 16:54 | 40.82146 | -95.86014 | 8093 ft | 257 kts | 32° |
| 2026-05-05 16:54 | 40.83569 | -95.84590 | 7852 ft | 256 kts | 32° |
| 2026-05-05 16:54 | 40.84986 | -95.83183 | 7595 ft | 254 kts | 32° |
| 2026-05-05 16:55 | 40.86437 | -95.81884 | 7338 ft | 249 kts | 20° |
| 2026-05-05 16:55 | 40.88094 | -95.81377 | 7117 ft | 243 kts | 4° |
| 2026-05-05 16:55 | 40.89755 | -95.81179 | 6882 ft | 243 kts | 2° |
| 2026-05-05 16:55 | 40.91442 | -95.81022 | 6645 ft | 242 kts | 2° |
| 2026-05-05 16:56 | 40.93125 | -95.80881 | 6412 ft | 242 kts | 2° |
| 2026-05-05 16:56 | 40.94809 | -95.80753 | 6166 ft | 243 kts | 2° |
| 2026-05-05 16:56 | 40.96492 | -95.80632 | 5968 ft | 241 kts | 2° |
| 2026-05-05 16:56 | 40.98154 | -95.80517 | 5806 ft | 238 kts | 2° |
| 2026-05-05 16:57 | 40.99813 | -95.80403 | 5658 ft | 240 kts | 2° |
| 2026-05-05 16:57 | 41.01494 | -95.80283 | 5460 ft | 244 kts | 2° |
| 2026-05-05 16:57 | 41.03201 | -95.80164 | 5228 ft | 246 kts | 2° |
| 2026-05-05 16:57 | 41.04910 | -95.80047 | 5002 ft | 246 kts | 2° |
| 2026-05-05 16:58 | 41.06608 | -95.79932 | 4759 ft | 246 kts | 2° |
| 2026-05-05 16:58 | 41.08315 | -95.79818 | 4518 ft | 245 kts | 2° |
| 2026-05-05 16:58 | 41.09989 | -95.79709 | 4286 ft | 244 kts | 2° |
| 2026-05-05 16:58 | 41.11676 | -95.79602 | 4061 ft | 244 kts | 2° |
| 2026-05-05 16:59 | 41.13373 | -95.79500 | 3833 ft | 245 kts | 1° |
| 2026-05-05 16:59 | 41.15061 | -95.79397 | 3653 ft | 240 kts | 2° |
| 2026-05-05 16:59 | 41.16687 | -95.79294 | 3530 ft | 228 kts | 2° |
| 2026-05-05 16:59 | 41.18243 | -95.79196 | 3376 ft | 219 kts | 2° |
| 2026-05-05 17:00 | 41.19732 | -95.79263 | 3200 ft | 214 kts | 343° |
| 2026-05-05 17:00 | 41.20910 | -95.80351 | 3031 ft | 203 kts | 313° |
| 2026-05-05 17:00 | 41.21904 | -95.81597 | 2814 ft | 191 kts | 323° |
| 2026-05-05 17:00 | 41.22956 | -95.82587 | 2562 ft | 180 kts | 325° |
| 2026-05-05 17:01 | 41.23926 | -95.83503 | 2338 ft | 165 kts | 325° |
| 2026-05-05 17:01 | 41.24818 | -95.84355 | 2106 ft | 151 kts | 324° |
| 2026-05-05 17:01 | 41.25647 | -95.85145 | 1926 ft | 147 kts | 324° |
| 2026-05-05 17:01 | 41.26483 | -95.85937 | 1733 ft | 146 kts | 324° |
| 2026-05-05 17:02 | 41.27298 | -95.86720 | 1502 ft | 144 kts | 323° |
| 2026-05-05 17:02 | 41.28111 | -95.87493 | 1292 ft | 143 kts | 324° |
| 2026-05-05 17:02 | 41.28914 | -95.88258 | 1097 ft | 141 kts | 323° |
| 2026-05-05 17:02 | 41.29687 | -95.88994 | 995 ft | 133 kts | 324° |
| 2026-05-05 17:03 | 41.30291 | -95.89570 | 988 ft | 76 kts | 324° |
| 2026-05-05 17:03 | 41.30488 | -95.89762 | 990 ft | 18 kts | 324° |
| 2026-05-05 17:03 | 41.30549 | -95.89874 | 983 ft | 15 kts | 253° |
| 2026-05-05 17:03 | 41.30506 | -95.89953 | 986 ft | 10 kts | 235° |
| 2026-05-05 17:04 | 41.30465 | -95.90018 | 985 ft | 8 kts | 198° |
| 2026-05-05 17:04 | 41.30417 | -95.89981 | 987 ft | 8 kts | 147° |
| 2026-05-05 17:04 | 41.30371 | -95.89940 | 991 ft | 8 kts | 144° |
| 2026-05-05 17:04 | 41.30328 | -95.89897 | 993 ft | 8 kts | 142° |
| 2026-05-05 17:05 | 41.30284 | -95.89857 | 991 ft | 8 kts | 146° |
| 2026-05-05 17:05 | 41.30232 | -95.89796 | 988 ft | 12 kts | 136° |
| 2026-05-05 17:05 | 41.30164 | -95.89726 | 989 ft | 13 kts | 145° |
| 2026-05-05 17:05 | 41.30096 | -95.89694 | 986 ft | 5 kts | 202° |
| 2026-05-05 17:06 | 41.30096 | -95.89733 | 987 ft | 5 kts | 283° |
| 2026-05-05 17:06 | 41.30098 | -95.89766 | 991 ft | 2 kts | 274° |
| 2026-05-05 17:06 | 41.30099 | -95.89777 | 992 ft | 0 kts | 275° |